JAL4980 RJFM-RJFM

Flight info

Callsign JAL4980
Flight time 1h 0m
Altitude 6000
Route R/V
Aircraft B763/H-V/N

Departure

Time 2026-05-01 13:01
Airport Miyazaki Airport (RJFM)

Arrival

Time 2026-05-01 14:01
Airport Miyazaki Airport (RJFM)
Time Latitude Longitude Altitude Speed Heading
2026-05-01 12:35 31.87356 131.44075 33 ft 0 kts 175°
2026-05-01 12:48 31.87366 131.44073 33 ft 2 kts 177°
2026-05-01 12:48 31.87381 131.44073 33 ft 2 kts 177°
2026-05-01 12:49 31.87396 131.44072 33 ft 2 kts 176°
2026-05-01 12:49 31.87411 131.44070 33 ft 2 kts 171°
2026-05-01 12:49 31.87425 131.44066 33 ft 2 kts 141°
2026-05-01 12:49 31.87435 131.44052 33 ft 2 kts 119°
2026-05-01 12:50 31.87440 131.44037 33 ft 2 kts 95°
2026-05-01 12:50 31.87439 131.44019 33 ft 2 kts 82°
2026-05-01 12:50 31.87438 131.44002 33 ft 2 kts 85°
2026-05-01 12:50 31.87437 131.43996 33 ft 0 kts 85°
2026-05-01 12:53 31.87465 131.44069 33 ft 12 kts 56°
2026-05-01 12:53 31.87496 131.44185 33 ft 17 kts 84°
2026-05-01 12:53 31.87510 131.44344 33 ft 21 kts 80°
2026-05-01 12:54 31.87518 131.44498 33 ft 16 kts 88°
2026-05-01 12:54 31.87542 131.44849 33 ft 22 kts 85°
2026-05-01 12:54 31.87557 131.45052 33 ft 27 kts 85°
2026-05-01 12:55 31.87584 131.45432 33 ft 24 kts 85°
2026-05-01 12:55 31.87597 131.45633 33 ft 25 kts 86°
2026-05-01 12:55 31.87614 131.45834 33 ft 23 kts 85°
2026-05-01 12:56 31.87625 131.45991 32 ft 18 kts 85°
2026-05-01 12:56 31.87642 131.46112 32 ft 11 kts 63°
2026-05-01 12:56 31.87682 131.46156 32 ft 2 kts 20°
2026-05-01 12:56 31.87695 131.46158 32 ft 0 kts
2026-05-01 12:59 31.87704 131.46158 32 ft 4 kts
2026-05-01 12:59 31.87797 131.46088 32 ft 10 kts 273°
2026-05-01 13:00 31.87796 131.46072 32 ft 0 kts 265°
2026-05-01 13:01 31.87794 131.46039 32 ft 12 kts 265°
2026-05-01 13:01 31.87769 131.45695 33 ft 82 kts 264°
2026-05-01 13:01 31.87603 131.43368 628 ft 154 kts 264°
2026-05-01 13:02 31.87505 131.42094 1108 ft 167 kts 264°
2026-05-01 13:07 31.78325 131.47040 4906 ft 241 kts 82°
2026-05-01 13:07 31.78600 131.48943 4892 ft 236 kts 82°
2026-05-01 13:07 31.78876 131.50862 4898 ft 237 kts 82°
2026-05-01 13:08 31.79155 131.52792 4909 ft 244 kts 82°
2026-05-01 13:08 31.79434 131.54759 4906 ft 248 kts 82°
2026-05-01 13:08 31.79712 131.56772 4890 ft 246 kts 82°
2026-05-01 13:08 31.79994 131.58769 4644 ft 250 kts 82°
2026-05-01 13:09 31.80273 131.60759 4289 ft 245 kts 82°
2026-05-01 13:09 31.80534 131.62701 3963 ft 239 kts 82°
2026-05-01 13:09 31.80783 131.64612 3630 ft 231 kts 82°
2026-05-01 13:09 31.81012 131.66428 3303 ft 221 kts 83°
2026-05-01 13:10 31.81218 131.68131 2995 ft 202 kts 83°
2026-05-01 13:10 31.81417 131.69707 2697 ft 192 kts 78°
2026-05-01 13:10 31.82080 131.71025 2379 ft 187 kts 40°
2026-05-01 13:10 31.83289 131.71500 2090 ft 188 kts
2026-05-01 13:11 31.84570 131.71254 1892 ft 183 kts 353°
2026-05-01 13:11 31.85788 131.70940 1951 ft 181 kts 353°
2026-05-01 13:11 31.87028 131.70489 1888 ft 192 kts 333°
2026-05-01 13:11 31.87852 131.69328 1867 ft 183 kts 295°
2026-05-01 13:12 31.88277 131.67950 1899 ft 178 kts 292°
2026-05-01 13:12 31.88697 131.66574 1941 ft 175 kts 292°
2026-05-01 13:12 31.89067 131.65210 1888 ft 178 kts 279°
2026-05-01 13:12 31.89035 131.63783 1886 ft 168 kts 265°
2026-05-01 13:13 31.88946 131.62468 1877 ft 158 kts 266°
2026-05-01 13:13 31.88863 131.61162 1920 ft 160 kts 266°
2026-05-01 13:13 31.88777 131.59854 1918 ft 163 kts 265°
2026-05-01 13:13 31.88686 131.58530 1885 ft 159 kts 266°
2026-05-01 13:14 31.88595 131.57243 1876 ft 162 kts 265°
2026-05-01 13:14 31.88496 131.55881 1660 ft 164 kts 266°
2026-05-01 13:14 31.88406 131.54576 1440 ft 160 kts 266°
2026-05-01 13:14 31.88312 131.53284 1244 ft 157 kts 265°
2026-05-01 13:15 31.88224 131.52014 1031 ft 157 kts 265°
2026-05-01 13:15 31.88133 131.50748 850 ft 155 kts 264°
2026-05-01 13:15 31.88034 131.49474 626 ft 158 kts 265°
2026-05-01 13:15 31.87953 131.48201 369 ft 156 kts 265°
2026-05-01 13:16 31.87856 131.46947 209 ft 151 kts 264°
2026-05-01 13:16 31.87774 131.45688 43 ft 155 kts 263°
2026-05-01 13:16 31.87683 131.44469 33 ft 146 kts 265°
2026-05-01 13:17 31.86807 131.40363 1604 ft 211 kts 233°
2026-05-01 13:17 31.85942 131.39031 1863 ft 195 kts 232°
2026-05-01 13:18 31.84359 131.36586 2535 ft 196 kts 232°
2026-05-01 13:18 31.83534 131.35289 2923 ft 203 kts 232°
2026-05-01 13:18 31.82645 131.33868 3375 ft 223 kts 231°
2026-05-01 13:18 31.81760 131.32443 4021 ft 214 kts 232°
2026-05-01 13:19 31.80734 131.31255 4695 ft 207 kts 205°
2026-05-01 13:19 31.79323 131.30910 4939 ft 217 kts 174°
2026-05-01 13:19 31.77171 131.33058 4927 ft 219 kts 104°
2026-05-01 13:20 31.77195 131.34953 4974 ft 246 kts 83°
2026-05-01 13:20 31.77485 131.36960 4912 ft 249 kts 82°
2026-05-01 13:20 31.77769 131.38915 4903 ft 243 kts 82°
2026-05-01 13:21 31.78345 131.42854 4906 ft 245 kts 82°
2026-05-01 13:21 31.78625 131.44821 4904 ft 246 kts 82°
2026-05-01 13:21 31.78912 131.46814 4895 ft 246 kts 82°
2026-05-01 13:21 31.79195 131.48772 4900 ft 244 kts 82°
2026-05-01 13:22 31.79474 131.50743 4899 ft 245 kts 82°
2026-05-01 13:22 31.79759 131.52736 4902 ft 246 kts 82°
2026-05-01 13:22 31.80046 131.54707 4899 ft 247 kts 82°
2026-05-01 13:22 31.80333 131.56644 4896 ft 236 kts 82°
2026-05-01 13:23 31.80600 131.58496 4885 ft 226 kts 82°
2026-05-01 13:23 31.80868 131.60321 4897 ft 225 kts 82°
2026-05-01 13:23 31.81135 131.62158 4911 ft 228 kts 82°
2026-05-01 13:23 31.81390 131.63962 4903 ft 220 kts 82°
2026-05-01 13:24 31.81637 131.65718 4893 ft 215 kts 83°
2026-05-01 13:24 31.81878 131.67444 4894 ft 215 kts 82°
2026-05-01 13:24 31.82116 131.69171 4892 ft 216 kts 83°
2026-05-01 13:25 31.82607 131.72669 4889 ft 217 kts 83°
2026-05-01 13:25 31.82847 131.74393 4884 ft 215 kts 83°
2026-05-01 13:25 31.83088 131.76132 4899 ft 214 kts 84°
2026-05-01 13:25 31.83337 131.77873 4902 ft 218 kts 82°
2026-05-01 13:26 31.83583 131.79625 4896 ft 218 kts 83°
2026-05-01 13:26 31.83838 131.81378 4892 ft 216 kts 83°
2026-05-01 13:26 31.84359 131.83003 4895 ft 218 kts 51°
2026-05-01 13:26 31.85582 131.84023 4930 ft 219 kts 14°
2026-05-01 13:27 31.87094 131.84058 4923 ft 216 kts 346°
2026-05-01 13:27 31.88503 131.83607 4959 ft 206 kts 341°
2026-05-01 13:27 31.91148 131.82516 4877 ft 195 kts 315°
2026-05-01 13:28 31.91611 131.79671 4740 ft 193 kts 245°
2026-05-01 13:28 31.90993 131.78259 4500 ft 196 kts 241°
2026-05-01 13:29 31.89880 131.75261 3903 ft 208 kts 261°
2026-05-01 13:29 31.89645 131.72021 3251 ft 192 kts 265°
2026-05-01 13:30 31.89214 131.65945 2110 ft 183 kts 266°
2026-05-01 13:31 31.89010 131.63054 1904 ft 175 kts 266°
2026-05-01 13:31 31.88718 131.58945 1875 ft 157 kts 267°
2026-05-01 13:32 31.88524 131.56177 1714 ft 176 kts 266°
2026-05-01 13:33 31.88184 131.52043 1007 ft 167 kts 266°
2026-05-01 13:33 31.87999 131.49223 657 ft 178 kts 262°
2026-05-01 13:34 31.87831 131.46477 153 ft 162 kts 265°
2026-05-01 13:34 31.87644 131.43926 35 ft 158 kts 262°
2026-05-01 13:35 31.87643 131.41185 1806 ft 194 kts 290°
2026-05-01 13:35 31.88104 131.39688 2306 ft 192 kts 292°
2026-05-01 13:35 31.89023 131.36793 3456 ft 196 kts 292°
2026-05-01 13:36 31.89568 131.35376 4068 ft 193 kts 307°
2026-05-01 13:36 31.90654 131.34508 4641 ft 194 kts 346°
2026-05-01 13:36 31.93316 131.35506 4919 ft 209 kts 33°
2026-05-01 13:37 31.94514 131.36459 4832 ft 214 kts 46°
2026-05-01 13:37 31.95309 131.37987 4964 ft 230 kts 71°
2026-05-01 13:37 31.95868 131.39810 4920 ft 236 kts 72°
2026-05-01 13:37 31.96406 131.41586 4895 ft 230 kts 72°
2026-05-01 13:38 31.97525 131.45312 4920 ft 252 kts 72°
2026-05-01 13:38 31.98103 131.47249 4907 ft 248 kts 72°
2026-05-01 13:38 31.98670 131.49167 4907 ft 246 kts 72°
2026-05-01 13:39 31.99221 131.51053 4908 ft 247 kts 73°
2026-05-01 13:39 31.99610 131.53036 4717 ft 251 kts 82°
2026-05-01 13:39 31.99886 131.55086 4353 ft 254 kts 82°
2026-05-01 13:39 32.00152 131.57147 3992 ft 255 kts 82°
2026-05-01 13:40 32.00413 131.59168 3649 ft 244 kts 82°
2026-05-01 13:40 32.00646 131.61084 3364 ft 233 kts 82°
2026-05-01 13:40 32.00858 131.62921 3081 ft 222 kts 82°
2026-05-01 13:40 32.01054 131.64699 2785 ft 214 kts 82°
2026-05-01 13:41 32.01237 131.66405 2522 ft 207 kts 82°
2026-05-01 13:41 32.01351 131.68066 2250 ft 203 kts 96°
2026-05-01 13:41 32.00790 131.69559 2006 ft 202 kts 133°
2026-05-01 13:41 31.99565 131.70308 1915 ft 203 kts 166°
2026-05-01 13:42 31.98116 131.70451 1918 ft 212 kts 173°
2026-05-01 13:42 31.96637 131.70557 1901 ft 211 kts 173°
2026-05-01 13:42 31.95177 131.70657 1901 ft 208 kts 173°
2026-05-01 13:42 31.93733 131.70766 1900 ft 209 kts 173°
2026-05-01 13:43 31.92283 131.70869 1882 ft 209 kts 173°
2026-05-01 13:43 31.90838 131.70566 1895 ft 215 kts 206°
2026-05-01 13:43 31.89774 131.69341 1903 ft 223 kts 244°
2026-05-01 13:43 31.89434 131.67558 1922 ft 224 kts 264°
2026-05-01 13:44 31.89276 131.65813 1862 ft 205 kts 263°
2026-05-01 13:44 31.89131 131.64197 1872 ft 195 kts 265°
2026-05-01 13:44 31.89000 131.62585 1940 ft 199 kts 265°
2026-05-01 13:44 31.88877 131.61002 1886 ft 189 kts 265°
2026-05-01 13:45 31.88767 131.59528 1860 ft 176 kts 266°
2026-05-01 13:45 31.88662 131.58079 1900 ft 180 kts 266°
2026-05-01 13:45 31.88555 131.56595 1788 ft 184 kts 266°
2026-05-01 13:45 31.88450 131.55127 1535 ft 176 kts 266°
2026-05-01 13:46 31.88352 131.53743 1295 ft 167 kts 265°
2026-05-01 13:46 31.88255 131.52402 1063 ft 160 kts 265°
2026-05-01 13:46 31.88163 131.51112 855 ft 156 kts 265°
2026-05-01 13:46 31.88074 131.49858 671 ft 155 kts 265°
2026-05-01 13:47 31.87984 131.48595 491 ft 153 kts 265°
2026-05-01 13:47 31.87894 131.47348 277 ft 154 kts 265°
2026-05-01 13:47 31.87799 131.46081 76 ft 153 kts 265°
2026-05-01 13:47 31.87712 131.44897 33 ft 139 kts 266°
2026-05-01 13:48 31.87622 131.43622 236 ft 178 kts 265°
2026-05-01 13:48 31.87681 131.42111 1115 ft 193 kts 287°
2026-05-01 13:48 31.88117 131.40663 1718 ft 194 kts 293°
2026-05-01 13:48 31.88588 131.39189 2203 ft 196 kts 293°
2026-05-01 13:49 31.89108 131.37587 2834 ft 220 kts 293°
2026-05-01 13:49 31.89671 131.35904 3410 ft 221 kts 296°
2026-05-01 13:49 31.90584 131.34525 3983 ft 222 kts 327°
2026-05-01 13:49 31.92138 131.33937 4661 ft 251 kts 358°
2026-05-01 13:50 31.93889 131.34314 4946 ft 264 kts 20°
2026-05-01 13:50 31.95573 131.35121 4902 ft 257 kts 22°
2026-05-01 13:50 31.97109 131.36154 4894 ft 249 kts 45°
2026-05-01 13:50 31.97985 131.37837 4928 ft 245 kts 76°
2026-05-01 13:51 31.98328 131.39825 4916 ft 248 kts 83°
2026-05-01 13:51 31.98618 131.41826 4900 ft 247 kts 82°
2026-05-01 13:51 31.98904 131.43806 4900 ft 244 kts 82°
2026-05-01 13:51 31.99183 131.45763 4905 ft 244 kts 82°
2026-05-01 13:52 31.99468 131.47748 4903 ft 245 kts 82°
2026-05-01 13:52 31.99742 131.49734 4903 ft 245 kts 82°
2026-05-01 13:52 32.00019 131.51714 4908 ft 246 kts 82°
2026-05-01 13:52 32.00299 131.53694 4896 ft 245 kts 82°
2026-05-01 13:53 32.00579 131.55676 4566 ft 247 kts 82°
2026-05-01 13:53 32.01115 131.59575 3943 ft 238 kts 82°
2026-05-01 13:53 32.01369 131.61504 3621 ft 236 kts 82°
2026-05-01 13:54 32.01608 131.63382 3272 ft 230 kts 82°
2026-05-01 13:54 32.01829 131.65193 2987 ft 221 kts 83°
2026-05-01 13:54 32.02039 131.66969 2745 ft 217 kts 84°
2026-05-01 13:54 32.01875 131.68692 2507 ft 213 kts 114°
2026-05-01 13:55 32.00915 131.69975 2295 ft 214 kts 148°
2026-05-01 13:55 31.99461 131.70445 2092 ft 216 kts 171°
2026-05-01 13:55 31.97962 131.70573 1941 ft 215 kts 172°
2026-05-01 13:55 31.96475 131.70688 1936 ft 210 kts 173°
2026-05-01 13:56 31.95006 131.70691 1933 ft 213 kts 189°
2026-05-01 13:56 31.93636 131.70068 1966 ft 210 kts 203°
2026-05-01 13:56 31.92341 131.69327 1975 ft 201 kts 203°
2026-05-01 13:56 31.91112 131.68611 1918 ft 196 kts 208°
2026-05-01 13:57 31.90162 131.67494 1933 ft 190 kts 233°
2026-05-01 13:57 31.89439 131.66234 1898 ft 180 kts 244°
2026-05-01 13:57 31.89192 131.64838 1929 ft 173 kts 266°
2026-05-01 13:57 31.89080 131.63409 1932 ft 179 kts 265°
2026-05-01 13:58 31.88957 131.61952 1921 ft 178 kts 265°
2026-05-01 13:58 31.88843 131.60490 1923 ft 180 kts 265°
2026-05-01 13:58 31.88734 131.59035 1933 ft 180 kts 265°
2026-05-01 13:58 31.88627 131.57587 1930 ft 175 kts 266°
2026-05-01 13:59 31.88527 131.56197 1682 ft 169 kts 265°
2026-05-01 13:59 31.88430 131.54848 1473 ft 162 kts 266°
2026-05-01 13:59 31.88338 131.53563 1270 ft 156 kts 266°
2026-05-01 13:59 31.88249 131.52309 1063 ft 154 kts 266°
2026-05-01 14:00 31.88160 131.51060 861 ft 151 kts 265°
2026-05-01 14:00 31.88073 131.49831 660 ft 150 kts 265°
2026-05-01 14:00 31.87972 131.48616 466 ft 151 kts 264°
2026-05-01 14:00 31.87893 131.47380 270 ft 151 kts 265°
2026-05-01 14:01 31.87806 131.46156 86 ft 151 kts 265°
2026-05-01 14:01 31.87715 131.44948 33 ft 130 kts 267°
2026-05-01 14:01 31.87665 131.44252 33 ft 52 kts 265°
2026-05-01 14:01 31.87637 131.43832 33 ft 43 kts 266°
2026-05-01 14:02 31.87586 131.43568 33 ft 22 kts 222°
2026-05-01 14:02 31.87459 131.43556 33 ft 14 kts 115°
2026-05-01 14:02 31.87459 131.43686 33 ft 17 kts 84°
2026-05-01 14:02 31.87471 131.43846 33 ft 21 kts 84°
2026-05-01 14:03 31.87482 131.43982 33 ft 15 kts 86°
2026-05-01 14:03 31.87483 131.44034 33 ft 4 kts 101°
2026-05-01 14:03 31.87447 131.44067 33 ft 8 kts 166°
2026-05-01 14:03 31.87390 131.44072 33 ft 4 kts 177°
2026-05-01 14:04 31.87360 131.44073 33 ft 3 kts 175°
2026-05-01 14:04 31.87354 131.44075 33 ft 0 kts 175°